createdAt,value
2019-03-16T00:00:18.444Z,974.62
2019-03-16T00:01:18.434Z,974.69
2019-03-16T00:02:18.427Z,974.65
2019-03-16T00:03:18.409Z,974.58
2019-03-16T00:04:18.403Z,974.67
2019-03-16T00:05:18.396Z,974.65
2019-03-16T00:06:18.376Z,974.72
2019-03-16T00:07:32.114Z,974.61
2019-03-16T00:08:18.363Z,974.74
2019-03-16T00:09:18.346Z,974.62
2019-03-16T00:10:18.338Z,974.70
2019-03-16T00:11:18.325Z,974.76
2019-03-16T00:12:18.314Z,974.69
2019-03-16T00:13:18.302Z,974.70
2019-03-16T00:14:18.292Z,974.70
2019-03-16T00:15:18.280Z,974.70
2019-03-16T00:16:18.270Z,974.74
2019-03-16T00:17:23.277Z,974.69
2019-03-16T00:18:18.248Z,974.75
2019-03-16T00:19:18.236Z,974.74
2019-03-16T00:20:18.226Z,974.74
2019-03-16T00:21:18.216Z,974.72
2019-03-16T00:22:18.203Z,974.75
2019-03-16T00:23:18.192Z,974.72
2019-03-16T00:24:18.185Z,974.73
2019-03-16T00:25:18.170Z,974.72
2019-03-16T00:26:18.162Z,974.77
2019-03-16T00:27:18.149Z,974.68
2019-03-16T00:28:18.139Z,974.66
2019-03-16T00:29:18.128Z,974.72
2019-03-16T00:30:18.115Z,974.64
2019-03-16T00:31:18.104Z,974.73
2019-03-16T00:32:18.094Z,974.63
2019-03-16T00:33:18.085Z,974.71
2019-03-16T00:34:18.072Z,974.68
2019-03-16T00:35:18.060Z,974.67
2019-03-16T00:36:18.054Z,974.54
2019-03-16T00:37:18.040Z,974.62
2019-03-16T00:38:18.031Z,974.65
2019-03-16T00:39:18.018Z,974.65
2019-03-16T00:40:18.009Z,974.69
2019-03-16T00:41:17.999Z,974.61
2019-03-16T00:42:17.987Z,974.67
2019-03-16T00:43:17.975Z,974.55
2019-03-16T00:44:17.963Z,974.49
2019-03-16T00:45:17.956Z,974.65
2019-03-16T00:46:17.939Z,974.67
2019-03-16T00:47:17.931Z,974.56
2019-03-16T00:48:17.918Z,974.65
2019-03-16T00:49:17.911Z,974.52
2019-03-16T00:50:17.897Z,974.65
2019-03-16T00:51:17.970Z,974.60
2019-03-16T00:52:17.876Z,974.65
2019-03-16T00:53:17.868Z,974.65
2019-03-16T00:54:17.851Z,974.69
2019-03-16T00:55:17.840Z,974.73
2019-03-16T00:56:17.835Z,974.64
2019-03-16T00:57:17.820Z,974.70
2019-03-16T00:58:17.809Z,974.67
2019-03-16T00:59:17.799Z,974.69
2019-03-16T01:00:17.787Z,974.68
2019-03-16T01:01:17.777Z,974.61
2019-03-16T01:02:27.127Z,974.67
2019-03-16T01:03:17.754Z,974.66
2019-03-16T01:04:17.743Z,974.64
2019-03-16T01:05:17.733Z,974.67
2019-03-16T01:06:17.720Z,974.69
2019-03-16T01:07:17.708Z,974.68
2019-03-16T01:08:17.697Z,974.73
2019-03-16T01:09:17.690Z,974.68
2019-03-16T01:10:17.677Z,974.72
2019-03-16T01:11:17.665Z,974.72
2019-03-16T01:12:17.656Z,974.70
2019-03-16T01:13:17.644Z,974.69
2019-03-16T01:14:17.634Z,974.73
2019-03-16T01:15:17.627Z,974.76
2019-03-16T01:16:17.611Z,974.72
2019-03-16T01:17:17.599Z,974.67
2019-03-16T01:18:17.592Z,974.72
2019-03-16T01:19:17.578Z,974.70
2019-03-16T01:20:17.568Z,974.64
2019-03-16T01:21:17.555Z,974.66
2019-03-16T01:22:17.545Z,974.64
2019-03-16T01:23:17.909Z,974.66
2019-03-16T01:24:17.522Z,974.65
2019-03-16T01:25:17.513Z,974.62
2019-03-16T01:26:17.501Z,974.62
2019-03-16T01:27:17.488Z,974.62
2019-03-16T01:28:17.477Z,974.63
2019-03-16T01:29:17.467Z,974.62
2019-03-16T01:30:17.466Z,974.67
2019-03-16T01:31:17.446Z,974.66
2019-03-16T01:32:17.433Z,974.71
2019-03-16T01:33:17.423Z,974.67
2019-03-16T01:34:17.411Z,974.70
2019-03-16T01:35:17.402Z,974.69
2019-03-16T01:36:17.394Z,974.74
2019-03-16T01:37:17.379Z,974.70
2019-03-16T01:38:17.370Z,974.70
2019-03-16T01:39:17.357Z,974.69
2019-03-16T01:40:17.372Z,974.68
2019-03-16T01:41:17.341Z,974.64
2019-03-16T01:42:17.323Z,974.70
2019-03-16T01:43:17.313Z,974.71
2019-03-16T01:44:17.301Z,974.74
2019-03-16T01:45:17.294Z,974.70
2019-03-16T01:46:17.280Z,974.66
2019-03-16T01:47:17.268Z,974.74
2019-03-16T01:48:17.257Z,974.64
2019-03-16T01:49:17.247Z,974.59
2019-03-16T01:50:17.237Z,974.58
2019-03-16T01:51:17.225Z,974.58
2019-03-16T01:52:17.215Z,974.55
2019-03-16T01:53:17.206Z,974.56
2019-03-16T01:54:17.194Z,974.59
2019-03-16T01:55:17.181Z,974.58
2019-03-16T01:56:17.169Z,974.62
2019-03-16T01:57:17.173Z,974.60
2019-03-16T01:58:17.150Z,974.58
2019-03-16T01:59:17.137Z,974.56
2019-03-16T02:00:17.132Z,974.58
2019-03-16T02:01:17.117Z,974.55
2019-03-16T02:02:17.107Z,974.48
2019-03-16T02:03:17.095Z,974.45
2019-03-16T02:04:17.083Z,974.54
2019-03-16T02:05:17.072Z,974.56
2019-03-16T02:06:17.059Z,974.52
2019-03-16T02:07:17.048Z,974.54
2019-03-16T02:08:17.040Z,974.52
2019-03-16T02:09:17.028Z,974.51
2019-03-16T02:10:17.018Z,974.47
2019-03-16T02:11:17.006Z,974.54
2019-03-16T02:12:16.997Z,974.47
2019-03-16T02:13:17.071Z,974.50
2019-03-16T02:14:16.973Z,974.49
2019-03-16T02:15:16.964Z,974.43
2019-03-16T02:16:16.950Z,974.48
2019-03-16T02:17:16.941Z,974.48
2019-03-16T02:18:16.930Z,974.47
2019-03-16T02:19:16.916Z,974.45
2019-03-16T02:20:16.905Z,974.42
2019-03-16T02:21:16.896Z,974.35
2019-03-16T02:22:16.886Z,974.36
2019-03-16T02:23:16.873Z,974.39
2019-03-16T02:24:16.862Z,974.41
2019-03-16T02:25:16.855Z,974.40
2019-03-16T02:26:16.842Z,974.44
2019-03-16T02:27:16.828Z,974.38
2019-03-16T02:28:16.817Z,974.42
2019-03-16T02:29:16.808Z,974.35
2019-03-16T02:30:16.805Z,974.42
2019-03-16T02:31:16.786Z,974.35
2019-03-16T02:32:16.777Z,974.33
2019-03-16T02:33:16.765Z,974.33
2019-03-16T02:34:16.754Z,974.29
2019-03-16T02:35:16.743Z,974.31
2019-03-16T02:36:16.812Z,974.26
2019-03-16T02:37:16.753Z,974.20
2019-03-16T02:38:16.707Z,974.20
2019-03-16T02:39:16.696Z,974.20
2019-03-16T02:40:16.685Z,974.22
2019-03-16T02:41:16.685Z,974.22
2019-03-16T02:42:16.667Z,974.26
2019-03-16T02:43:16.749Z,974.28
2019-03-16T02:44:16.640Z,974.16
2019-03-16T02:45:16.629Z,974.21
2019-03-16T02:46:16.620Z,974.20
2019-03-16T02:47:16.607Z,974.19
2019-03-16T02:48:16.598Z,974.08
2019-03-16T02:49:16.584Z,974.19
2019-03-16T02:50:16.573Z,974.15
2019-03-16T02:51:16.566Z,974.14
2019-03-16T02:52:16.634Z,974.09
2019-03-16T02:53:16.540Z,974.18
2019-03-16T02:54:16.529Z,974.21
2019-03-16T02:55:16.518Z,974.22
2019-03-16T02:56:16.506Z,974.16
2019-03-16T02:57:16.495Z,974.23
2019-03-16T02:58:16.496Z,974.18
2019-03-16T02:59:16.474Z,974.21
2019-03-16T03:00:16.461Z,974.24
2019-03-16T03:01:16.451Z,974.23
2019-03-16T03:02:16.446Z,974.24
2019-03-16T03:03:28.731Z,974.25
2019-03-16T03:04:16.417Z,974.27
2019-03-16T03:05:16.414Z,974.17
2019-03-16T03:06:16.396Z,974.33
2019-03-16T03:07:16.447Z,974.22
2019-03-16T03:08:16.372Z,974.23
2019-03-16T03:09:16.366Z,974.22
2019-03-16T03:10:16.355Z,974.26
2019-03-16T03:11:16.339Z,974.20
2019-03-16T03:12:16.327Z,974.25
2019-03-16T03:13:16.355Z,974.26
2019-03-16T03:14:16.304Z,974.31
2019-03-16T03:15:16.295Z,974.30
2019-03-16T03:16:16.283Z,974.29
2019-03-16T03:17:16.354Z,974.20
2019-03-16T03:18:16.263Z,974.30
2019-03-16T03:19:16.251Z,974.40
2019-03-16T03:20:16.238Z,974.21
2019-03-16T03:21:16.227Z,974.26
2019-03-16T03:22:16.216Z,974.31
2019-03-16T03:23:16.206Z,974.19
2019-03-16T03:24:16.197Z,974.22
2019-03-16T03:25:16.189Z,974.29
2019-03-16T03:26:16.172Z,974.27
2019-03-16T03:27:16.161Z,974.35
2019-03-16T03:28:16.148Z,974.26
2019-03-16T03:29:16.143Z,974.19
2019-03-16T03:30:16.126Z,974.30
2019-03-16T03:31:16.116Z,974.28
2019-03-16T03:32:16.103Z,974.26
2019-03-16T03:33:16.102Z,974.21
2019-03-16T03:34:16.094Z,974.19
2019-03-16T03:35:16.073Z,974.27
2019-03-16T03:36:16.057Z,974.22
2019-03-16T03:37:16.048Z,974.26
2019-03-16T03:38:16.037Z,974.25
2019-03-16T03:39:16.036Z,974.32
2019-03-16T03:40:16.019Z,974.28
2019-03-16T03:41:16.004Z,974.24
2019-03-16T03:42:15.990Z,974.28
2019-03-16T03:43:15.996Z,974.35
2019-03-16T03:44:15.979Z,974.39
2019-03-16T03:45:15.957Z,974.40
2019-03-16T03:46:15.945Z,974.38
2019-03-16T03:47:15.933Z,974.25
2019-03-16T03:48:15.932Z,974.33
2019-03-16T03:49:16.050Z,974.41
2019-03-16T03:50:15.903Z,974.36
2019-03-16T03:51:15.891Z,974.40
2019-03-16T03:52:15.877Z,974.32
2019-03-16T03:53:15.867Z,974.40
2019-03-16T03:54:15.855Z,974.44
2019-03-16T03:55:15.872Z,974.42
2019-03-16T03:56:15.831Z,974.42
2019-03-16T03:57:15.819Z,974.44
2019-03-16T03:58:15.806Z,974.40
2019-03-16T03:59:15.799Z,974.38
2019-03-16T04:00:15.789Z,974.42
2019-03-16T04:01:15.773Z,974.40
2019-03-16T04:02:15.769Z,974.47
2019-03-16T04:03:15.754Z,974.43
2019-03-16T04:04:16.231Z,974.35
2019-03-16T04:05:15.736Z,974.42
2019-03-16T04:06:15.718Z,974.45
2019-03-16T04:07:19.774Z,974.45
2019-03-16T04:08:15.695Z,974.44
2019-03-16T04:09:15.682Z,974.36
2019-03-16T04:10:15.670Z,974.44
2019-03-16T04:11:15.665Z,974.43
2019-03-16T04:12:15.653Z,974.45
2019-03-16T04:13:15.640Z,974.45
2019-03-16T04:14:15.629Z,974.45
2019-03-16T04:15:15.617Z,974.45
2019-03-16T04:16:15.608Z,974.41
2019-03-16T04:17:15.595Z,974.40
2019-03-16T04:18:15.586Z,974.39
2019-03-16T04:19:15.574Z,974.45
2019-03-16T04:20:15.575Z,974.42
2019-03-16T04:21:15.552Z,974.41
2019-03-16T04:22:15.538Z,974.38
2019-03-16T04:23:15.527Z,974.49
2019-03-16T04:24:15.518Z,974.46
2019-03-16T04:25:15.510Z,974.44
2019-03-16T04:26:15.496Z,974.40
2019-03-16T04:27:16.850Z,974.51
2019-03-16T04:28:15.470Z,974.46
2019-03-16T04:29:15.459Z,974.45
2019-03-16T04:30:15.452Z,974.46
2019-03-16T04:31:15.436Z,974.45
2019-03-16T04:32:15.426Z,974.45
2019-03-16T04:33:15.421Z,974.41
2019-03-16T04:34:28.481Z,974.44
2019-03-16T04:35:15.395Z,974.44
2019-03-16T04:36:15.383Z,974.42
2019-03-16T04:37:15.372Z,974.40
2019-03-16T04:38:15.359Z,974.41
2019-03-16T04:39:15.354Z,974.40
2019-03-16T04:40:15.355Z,974.38
2019-03-16T04:41:15.325Z,974.43
2019-03-16T04:42:15.314Z,974.44
2019-03-16T04:43:15.306Z,974.43
2019-03-16T04:44:15.294Z,974.43
2019-03-16T04:45:15.281Z,974.48
2019-03-16T04:46:15.270Z,974.44
2019-03-16T04:47:15.262Z,974.47
2019-03-16T04:48:15.250Z,974.44
2019-03-16T04:49:15.237Z,974.42
2019-03-16T04:50:15.225Z,974.40
2019-03-16T04:51:15.214Z,974.33
2019-03-16T04:52:15.202Z,974.39
2019-03-16T04:53:15.193Z,974.36
2019-03-16T04:54:15.181Z,974.37
2019-03-16T04:55:15.168Z,974.44
2019-03-16T04:56:15.157Z,974.44
2019-03-16T04:57:15.148Z,974.43
2019-03-16T04:58:15.135Z,974.42
2019-03-16T04:59:15.127Z,974.42
2019-03-16T05:00:15.114Z,974.45
2019-03-16T05:01:15.103Z,974.42
2019-03-16T05:02:15.090Z,974.45
2019-03-16T05:03:15.089Z,974.45
2019-03-16T05:04:15.068Z,974.44
2019-03-16T05:05:15.059Z,974.43
2019-03-16T05:06:15.048Z,974.47
2019-03-16T05:07:15.038Z,974.46
2019-03-16T05:08:15.026Z,974.45
2019-03-16T05:09:15.016Z,974.42
2019-03-16T05:10:15.002Z,974.42
2019-03-16T05:11:14.994Z,974.40
2019-03-16T05:12:14.982Z,974.38
2019-03-16T05:13:14.969Z,974.42
2019-03-16T05:14:14.958Z,974.44
2019-03-16T05:15:14.950Z,974.45
2019-03-16T05:16:14.936Z,974.39
2019-03-16T05:17:14.926Z,974.44
2019-03-16T05:18:14.914Z,974.40
2019-03-16T05:19:14.906Z,974.45
2019-03-16T05:20:14.893Z,974.38
2019-03-16T05:21:14.880Z,974.39
2019-03-16T05:22:14.869Z,974.44
2019-03-16T05:23:14.860Z,974.42
2019-03-16T05:24:14.848Z,974.48
2019-03-16T05:25:14.838Z,974.41
2019-03-16T05:26:14.825Z,974.48
2019-03-16T05:27:14.815Z,974.39
2019-03-16T05:28:14.804Z,974.37
2019-03-16T05:29:14.794Z,974.39
2019-03-16T05:30:14.781Z,974.35
2019-03-16T05:31:14.771Z,974.46
2019-03-16T05:32:14.760Z,974.40
2019-03-16T05:33:14.749Z,974.39
2019-03-16T05:34:14.736Z,974.45
2019-03-16T05:35:14.727Z,974.39
2019-03-16T05:36:14.716Z,974.45
2019-03-16T05:37:14.704Z,974.50
2019-03-16T05:38:14.803Z,974.43
2019-03-16T05:39:14.681Z,974.50
2019-03-16T05:40:14.671Z,974.51
2019-03-16T05:41:14.659Z,974.56
2019-03-16T05:42:14.648Z,974.48
2019-03-16T05:43:14.640Z,974.58
2019-03-16T05:44:14.627Z,974.55
2019-03-16T05:45:14.616Z,974.48
2019-03-16T05:46:14.604Z,974.42
2019-03-16T05:47:14.594Z,974.51
2019-03-16T05:48:14.584Z,974.46
2019-03-16T05:49:14.571Z,974.54
2019-03-16T05:50:14.561Z,974.55
2019-03-16T05:51:14.549Z,974.53
2019-03-16T05:52:14.538Z,974.54
2019-03-16T05:53:14.527Z,974.48
2019-03-16T05:54:14.514Z,974.46
2019-03-16T05:55:14.506Z,974.45
2019-03-16T05:56:14.493Z,974.46
2019-03-16T05:57:14.483Z,974.35
2019-03-16T05:58:14.471Z,974.35
2019-03-16T05:59:14.459Z,974.37
2019-03-16T06:00:14.448Z,974.36
2019-03-16T06:01:14.437Z,974.44
2019-03-16T06:02:14.426Z,974.42
2019-03-16T06:03:14.421Z,974.38
2019-03-16T06:04:14.403Z,974.23
2019-03-16T06:05:14.394Z,974.41
2019-03-16T06:06:14.381Z,974.34
2019-03-16T06:07:14.371Z,974.32
2019-03-16T06:08:14.359Z,974.33
2019-03-16T06:09:14.348Z,974.36
2019-03-16T06:10:14.338Z,974.29
2019-03-16T06:11:14.329Z,974.31
2019-03-16T06:12:14.319Z,974.25
2019-03-16T06:13:14.308Z,974.20
2019-03-16T06:14:14.292Z,974.30
2019-03-16T06:15:14.286Z,974.28
2019-03-16T06:16:14.270Z,974.28
2019-03-16T06:17:14.261Z,974.23
2019-03-16T06:18:14.247Z,974.20
2019-03-16T06:19:14.239Z,974.23
2019-03-16T06:20:14.226Z,974.23
2019-03-16T06:21:14.214Z,974.25
2019-03-16T06:22:14.208Z,974.25
2019-03-16T06:23:14.191Z,974.27
2019-03-16T06:24:14.183Z,974.28
2019-03-16T06:25:14.197Z,974.30
2019-03-16T06:26:14.158Z,974.26
2019-03-16T06:27:14.147Z,974.24
2019-03-16T06:28:14.149Z,974.25
2019-03-16T06:29:14.125Z,974.20
2019-03-16T06:30:14.113Z,974.22
2019-03-16T06:31:14.102Z,974.20
2019-03-16T06:32:14.092Z,974.22
2019-03-16T06:33:14.083Z,974.24
2019-03-16T06:34:14.072Z,974.12
2019-03-16T06:35:23.993Z,974.16
2019-03-16T06:36:14.048Z,974.14
2019-03-16T06:37:14.036Z,974.19
2019-03-16T06:38:14.098Z,974.09
2019-03-16T06:39:14.015Z,974.14
2019-03-16T06:40:14.002Z,974.11
2019-03-16T06:41:13.992Z,974.14
2019-03-16T06:42:13.981Z,974.12
2019-03-16T06:43:13.971Z,974.03
2019-03-16T06:44:13.960Z,974.06
2019-03-16T06:45:13.953Z,974.04
2019-03-16T06:46:13.940Z,974.00
2019-03-16T06:47:13.927Z,974.12
2019-03-16T06:48:13.923Z,974.13
2019-03-16T06:49:13.908Z,974.13
2019-03-16T06:50:13.893Z,974.15
2019-03-16T06:51:14.107Z,974.14
2019-03-16T06:52:13.933Z,974.16
2019-03-16T06:53:13.861Z,974.21
2019-03-16T06:54:13.853Z,974.22
2019-03-16T06:55:13.837Z,974.29
2019-03-16T06:56:13.829Z,974.27
2019-03-16T06:57:13.819Z,974.20
2019-03-16T06:58:13.805Z,974.24
2019-03-16T06:59:13.796Z,974.29
2019-03-16T07:00:13.786Z,974.20
2019-03-16T07:01:13.773Z,974.19
2019-03-16T07:02:13.764Z,974.20
2019-03-16T07:03:13.753Z,974.20
2019-03-16T07:04:13.743Z,974.20
2019-03-16T07:05:13.783Z,974.15
2019-03-16T07:06:13.720Z,974.20
2019-03-16T07:07:13.711Z,974.23
2019-03-16T07:08:13.698Z,974.21
2019-03-16T07:09:13.688Z,974.14
2019-03-16T07:10:13.679Z,974.20
2019-03-16T07:11:13.666Z,974.23
2019-03-16T07:12:13.657Z,974.14
2019-03-16T07:13:13.644Z,974.24
2019-03-16T07:14:13.633Z,974.15
2019-03-16T07:15:13.626Z,974.23
2019-03-16T07:16:13.616Z,974.20
2019-03-16T07:17:13.602Z,974.19
2019-03-16T07:18:13.593Z,974.19
2019-03-16T07:19:13.583Z,974.18
2019-03-16T07:20:13.571Z,974.17
2019-03-16T07:21:13.561Z,974.20
2019-03-16T07:22:13.550Z,974.23
2019-03-16T07:23:13.651Z,974.20
2019-03-16T07:24:13.531Z,974.19
2019-03-16T07:25:13.521Z,974.17
2019-03-16T07:26:15.020Z,974.16
2019-03-16T07:27:25.714Z,974.13
2019-03-16T07:28:13.492Z,974.15
2019-03-16T07:29:13.477Z,974.17
2019-03-16T07:30:13.470Z,974.16
2019-03-16T07:31:13.457Z,974.13
2019-03-16T07:32:13.446Z,974.08
2019-03-16T07:33:13.436Z,974.19
2019-03-16T07:34:13.427Z,974.12
2019-03-16T07:35:13.417Z,974.20
2019-03-16T07:36:13.404Z,974.12
2019-03-16T07:37:13.393Z,974.19
2019-03-16T07:38:13.383Z,974.12
2019-03-16T07:39:13.375Z,974.19
2019-03-16T07:40:13.366Z,974.19
2019-03-16T07:41:13.355Z,974.28
2019-03-16T07:42:13.424Z,974.25
2019-03-16T07:43:13.335Z,974.19
2019-03-16T07:44:13.324Z,974.20
2019-03-16T07:45:13.314Z,974.18
2019-03-16T07:46:13.304Z,974.18
2019-03-16T07:47:13.297Z,974.18
2019-03-16T07:48:13.285Z,974.19
2019-03-16T07:49:13.278Z,974.15
2019-03-16T07:50:13.265Z,974.12
2019-03-16T07:51:13.260Z,974.11
2019-03-16T07:52:13.247Z,974.13
2019-03-16T07:53:13.238Z,974.07
2019-03-16T07:54:13.250Z,974.13
2019-03-16T07:55:13.217Z,974.09
2019-03-16T07:56:13.207Z,974.10
2019-03-16T07:57:13.195Z,974.01
2019-03-16T07:58:13.221Z,974.04
2019-03-16T07:59:13.176Z,974.06
2019-03-16T08:00:13.167Z,974.02
2019-03-16T08:01:13.156Z,974.05
2019-03-16T08:02:13.145Z,974.04
2019-03-16T08:03:13.136Z,974.05
2019-03-16T08:04:13.129Z,974.00
2019-03-16T08:05:18.767Z,974.01
2019-03-16T08:06:13.108Z,974.02
2019-03-16T08:07:13.099Z,974.02
2019-03-16T08:08:13.093Z,973.98
2019-03-16T08:09:13.162Z,974.03
2019-03-16T08:10:13.067Z,973.99
2019-03-16T08:11:13.055Z,974.00
2019-03-16T08:12:13.047Z,973.99
2019-03-16T08:13:13.036Z,974.01
2019-03-16T08:14:13.028Z,974.00
2019-03-16T08:15:13.018Z,974.02
2019-03-16T08:16:13.009Z,973.98
2019-03-16T08:17:12.999Z,973.98
2019-03-16T08:18:12.987Z,973.94
2019-03-16T08:19:12.978Z,973.94
2019-03-16T08:20:12.967Z,973.89
2019-03-16T08:21:12.960Z,973.98
2019-03-16T08:22:12.953Z,973.98
2019-03-16T08:23:12.941Z,974.04
2019-03-16T08:24:12.932Z,973.98
2019-03-16T08:25:12.923Z,974.05
2019-03-16T08:26:12.916Z,974.06
2019-03-16T08:27:12.904Z,974.01
2019-03-16T08:28:12.895Z,974.08
2019-03-16T08:29:12.887Z,974.07
2019-03-16T08:30:12.886Z,974.06
2019-03-16T08:31:12.869Z,974.07
2019-03-16T08:32:12.858Z,974.03
2019-03-16T08:33:12.851Z,974.07
2019-03-16T08:34:12.840Z,974.07
2019-03-16T08:35:12.835Z,974.03
2019-03-16T08:36:12.826Z,974.02
2019-03-16T08:37:12.816Z,974.04
2019-03-16T08:38:12.805Z,973.81
2019-03-16T08:39:12.799Z,973.95
2019-03-16T08:40:12.792Z,974.00
2019-03-16T08:41:12.781Z,973.96
2019-03-16T08:42:12.773Z,973.94
2019-03-16T08:43:12.762Z,973.94
2019-03-16T08:44:12.755Z,974.00
2019-03-16T08:45:12.748Z,973.91
2019-03-16T08:46:12.736Z,974.01
2019-03-16T08:47:12.730Z,973.90
2019-03-16T08:48:22.248Z,973.87
2019-03-16T08:49:12.712Z,973.99
2019-03-16T08:50:12.706Z,973.88
2019-03-16T08:51:12.694Z,973.89
2019-03-16T08:52:12.685Z,973.90
2019-03-16T08:53:12.678Z,973.96
2019-03-16T08:54:12.670Z,973.93
2019-03-16T08:55:12.683Z,973.79
2019-03-16T08:56:12.650Z,973.87
2019-03-16T08:57:12.641Z,973.81
2019-03-16T08:58:12.633Z,973.83
2019-03-16T08:59:12.624Z,973.83
2019-03-16T09:00:12.616Z,973.85
2019-03-16T09:01:12.607Z,973.85
2019-03-16T09:02:12.598Z,973.84
2019-03-16T09:03:12.591Z,973.71
2019-03-16T09:04:12.586Z,973.79
2019-03-16T09:05:12.572Z,973.74
2019-03-16T09:06:12.568Z,973.75
2019-03-16T09:07:12.557Z,973.73
2019-03-16T09:08:12.548Z,973.68
2019-03-16T09:09:12.538Z,973.63
2019-03-16T09:10:12.531Z,973.65
2019-03-16T09:11:12.524Z,973.63
2019-03-16T09:12:12.511Z,973.65
2019-03-16T09:13:12.504Z,973.56
2019-03-16T09:14:12.493Z,973.56
2019-03-16T09:15:12.487Z,973.55
2019-03-16T09:16:12.477Z,973.54
2019-03-16T09:17:12.469Z,973.53
2019-03-16T09:18:12.463Z,973.53
2019-03-16T09:19:12.452Z,973.51
2019-03-16T09:20:12.448Z,973.51
2019-03-16T09:21:12.506Z,973.43
2019-03-16T09:22:12.425Z,973.46
2019-03-16T09:23:12.417Z,973.46
2019-03-16T09:24:12.409Z,973.43
2019-03-16T09:25:12.402Z,973.42
2019-03-16T09:26:12.392Z,973.47
2019-03-16T09:27:12.386Z,973.38
2019-03-16T09:28:18.519Z,973.49
2019-03-16T09:29:15.139Z,973.47
2019-03-16T09:30:12.360Z,973.49
2019-03-16T09:31:12.351Z,973.47
2019-03-16T09:32:12.340Z,973.51
2019-03-16T09:33:12.371Z,973.49
2019-03-16T09:34:12.324Z,973.48
2019-03-16T09:35:12.314Z,973.52
2019-03-16T09:36:12.305Z,973.51
2019-03-16T09:37:12.302Z,973.54
2019-03-16T09:38:12.290Z,973.49
2019-03-16T09:39:12.283Z,973.56
2019-03-16T09:40:12.282Z,973.55
2019-03-16T09:41:12.349Z,973.56
2019-03-16T09:42:12.257Z,973.64
2019-03-16T09:43:12.250Z,973.60
2019-03-16T09:44:12.245Z,973.55
2019-03-16T09:45:12.236Z,973.45
2019-03-16T09:46:12.228Z,973.57
2019-03-16T09:47:12.220Z,973.59
2019-03-16T09:48:12.216Z,973.42
2019-03-16T09:49:12.209Z,973.51
2019-03-16T09:50:12.196Z,973.49
2019-03-16T09:51:12.189Z,973.50
2019-03-16T09:52:12.183Z,973.49
2019-03-16T09:53:12.176Z,973.50
2019-03-16T09:54:12.167Z,973.46
2019-03-16T09:55:12.165Z,973.46
2019-03-16T09:56:12.152Z,973.43
2019-03-16T09:57:12.144Z,973.48
2019-03-16T09:58:12.138Z,973.36
2019-03-16T09:59:12.130Z,973.38
2019-03-16T10:00:12.121Z,973.41
2019-03-16T10:01:15.163Z,973.42
2019-03-16T10:02:12.105Z,973.42
2019-03-16T10:03:12.099Z,973.50
2019-03-16T10:04:12.092Z,973.48
2019-03-16T10:05:12.086Z,973.45
2019-03-16T10:06:12.077Z,973.34
2019-03-16T10:07:12.072Z,973.38
2019-03-16T10:08:12.064Z,973.37
2019-03-16T10:09:12.057Z,973.30
2019-03-16T10:10:12.111Z,973.33
2019-03-16T10:11:12.048Z,973.35
2019-03-16T10:12:12.037Z,973.33
2019-03-16T10:13:12.030Z,973.27
2019-03-16T10:14:12.023Z,973.36
2019-03-16T10:15:12.016Z,973.31
2019-03-16T10:16:12.011Z,973.36
2019-03-16T10:17:12.003Z,973.36
2019-03-16T10:18:11.996Z,973.34
2019-03-16T10:19:11.989Z,973.31
2019-03-16T10:20:11.982Z,973.31
2019-03-16T10:21:11.975Z,973.26
2019-03-16T10:22:11.969Z,973.29
2019-03-16T10:23:11.962Z,973.32
2019-03-16T10:24:11.954Z,973.26
2019-03-16T10:25:11.949Z,973.27
2019-03-16T10:26:11.940Z,973.28
2019-03-16T10:27:11.934Z,973.27
2019-03-16T10:28:11.931Z,973.24
2019-03-16T10:29:11.922Z,973.26
2019-03-16T10:30:11.915Z,973.24
2019-03-16T10:31:11.907Z,973.21
2019-03-16T10:32:11.902Z,973.20
2019-03-16T10:33:11.896Z,973.22
2019-03-16T10:34:11.888Z,973.22
2019-03-16T10:35:11.882Z,973.23
2019-03-16T10:36:11.878Z,973.17
2019-03-16T10:37:11.871Z,973.19
2019-03-16T10:38:11.862Z,973.13
2019-03-16T10:39:11.858Z,973.03
2019-03-16T10:40:11.854Z,973.07
2019-03-16T10:41:11.841Z,973.07
2019-03-16T10:42:11.835Z,973.00
2019-03-16T10:43:11.829Z,973.01
2019-03-16T10:44:11.824Z,972.93
2019-03-16T10:45:11.820Z,972.98
2019-03-16T10:46:11.809Z,973.04
2019-03-16T10:47:11.804Z,972.98
2019-03-16T10:48:11.796Z,973.03
2019-03-16T10:49:11.793Z,972.96
2019-03-16T10:50:11.782Z,972.97
2019-03-16T10:51:11.776Z,972.96
2019-03-16T10:52:11.770Z,972.96
2019-03-16T10:53:11.765Z,973.01
2019-03-16T10:54:11.758Z,972.88
2019-03-16T10:55:11.753Z,972.91
2019-03-16T10:56:11.745Z,972.86
2019-03-16T10:57:11.737Z,972.84
2019-03-16T10:58:11.730Z,972.76
2019-03-16T10:59:11.725Z,972.83
2019-03-16T11:00:11.717Z,972.69
2019-03-16T11:01:11.711Z,972.89
2019-03-16T11:02:11.704Z,972.86
2019-03-16T11:03:11.698Z,972.79
2019-03-16T11:04:11.693Z,972.79
2019-03-16T11:05:11.688Z,972.76
2019-03-16T11:06:11.678Z,972.76
2019-03-16T11:07:11.673Z,972.73
2019-03-16T11:08:11.668Z,972.72
2019-03-16T11:09:11.664Z,972.60
2019-03-16T11:10:11.659Z,972.59
2019-03-16T11:11:11.649Z,972.53
2019-03-16T11:12:11.642Z,972.55
2019-03-16T11:13:11.636Z,972.56
2019-03-16T11:14:11.631Z,972.55
2019-03-16T11:15:11.634Z,972.55
2019-03-16T11:16:11.617Z,972.45
2019-03-16T11:17:11.610Z,972.52
2019-03-16T11:18:11.605Z,972.43
2019-03-16T11:19:11.600Z,972.44
2019-03-16T11:20:11.591Z,972.45
2019-03-16T11:21:11.590Z,972.41
2019-03-16T11:22:11.580Z,972.37
2019-03-16T11:23:11.572Z,972.42
2019-03-16T11:24:11.567Z,972.41
2019-03-16T11:25:11.560Z,972.42
2019-03-16T11:26:11.554Z,972.43
2019-03-16T11:27:11.552Z,972.34
2019-03-16T11:28:11.542Z,972.40
2019-03-16T11:29:11.537Z,972.30
2019-03-16T11:30:11.531Z,972.33
2019-03-16T11:31:11.522Z,972.34
2019-03-16T11:32:11.516Z,972.36
2019-03-16T11:33:11.511Z,972.35
2019-03-16T11:34:11.502Z,972.34
2019-03-16T11:35:11.515Z,972.40
2019-03-16T11:36:11.495Z,972.32
2019-03-16T11:37:11.485Z,972.33
2019-03-16T11:38:11.479Z,972.26
2019-03-16T11:39:11.473Z,972.33
2019-03-16T11:40:11.464Z,972.39
2019-03-16T11:41:11.458Z,972.36
2019-03-16T11:42:11.455Z,972.37
2019-03-16T11:43:11.443Z,972.34
2019-03-16T11:44:11.441Z,972.31
2019-03-16T11:45:11.433Z,972.33
2019-03-16T11:46:11.425Z,972.25
2019-03-16T11:47:11.421Z,972.27
2019-03-16T11:48:11.413Z,972.21
2019-03-16T11:49:11.410Z,972.26
2019-03-16T11:50:11.401Z,972.14
2019-03-16T11:51:11.399Z,972.19
2019-03-16T11:52:11.403Z,972.20
2019-03-16T11:53:11.382Z,972.18
2019-03-16T11:54:11.379Z,972.14
2019-03-16T11:55:11.369Z,972.17
2019-03-16T11:56:18.005Z,972.01
2019-03-16T11:57:11.419Z,972.05
2019-03-16T11:58:11.351Z,972.00
2019-03-16T11:59:21.233Z,971.96
2019-03-16T12:00:11.349Z,971.90
2019-03-16T12:01:11.333Z,971.94
2019-03-16T12:02:11.325Z,971.91
2019-03-16T12:03:11.319Z,971.88
2019-03-16T12:04:11.313Z,971.86
2019-03-16T12:05:11.310Z,971.83
2019-03-16T12:06:11.300Z,971.81
2019-03-16T12:07:11.296Z,971.75
2019-03-16T12:08:11.291Z,971.76
2019-03-16T12:09:11.290Z,971.73
2019-03-16T12:10:11.277Z,971.71
2019-03-16T12:11:11.272Z,971.74
2019-03-16T12:12:11.265Z,971.76
2019-03-16T12:13:17.420Z,971.64
2019-03-16T12:14:11.254Z,971.59
2019-03-16T12:15:11.246Z,971.64
2019-03-16T12:16:11.240Z,971.59
2019-03-16T12:17:11.239Z,971.59
2019-03-16T12:18:11.240Z,971.56
2019-03-16T12:19:11.222Z,971.55
2019-03-16T12:20:11.218Z,971.62
2019-03-16T12:21:11.210Z,971.54
2019-03-16T12:22:11.206Z,971.46
2019-03-16T12:23:11.198Z,971.39
2019-03-16T12:24:11.194Z,971.40
2019-03-16T12:25:11.185Z,971.46
2019-03-16T12:26:11.184Z,971.43
2019-03-16T12:27:11.177Z,971.37
2019-03-16T12:28:11.170Z,971.43